createdAt,value
2019-05-01T00:01:11.891Z,1.0828
2019-05-01T00:03:16.185Z,0.1455
2019-05-01T00:05:19.946Z,0.0583
2019-05-01T00:07:24.011Z,0.4973
2019-05-01T00:09:27.770Z,0.0875
2019-05-01T00:11:31.732Z,0.0000
2019-05-01T00:13:35.401Z,0.0000
2019-05-01T00:15:38.825Z,0.0000
2019-05-01T00:17:42.539Z,0.0000
2019-05-01T00:19:46.087Z,0.0000
2019-05-01T00:21:50.015Z,0.2933
2019-05-01T00:23:53.753Z,0.2337
2019-05-01T00:25:57.825Z,0.0000
2019-05-01T00:28:01.809Z,0.0000
2019-05-01T00:30:05.257Z,0.0584
2019-05-01T00:32:08.957Z,0.0000
2019-05-01T00:34:12.617Z,0.0000
2019-05-01T00:36:16.296Z,0.3221
2019-05-01T00:38:20.025Z,0.2342
2019-05-01T00:40:23.664Z,0.1463
2019-05-01T00:42:27.711Z,0.1464
2019-05-01T00:44:31.426Z,0.7880
2019-05-01T00:46:35.091Z,0.7316
2019-05-01T00:48:38.170Z,0.9953
2019-05-01T00:50:41.437Z,0.9997
2019-05-01T00:52:45.959Z,0.0881
2019-05-01T00:54:49.567Z,0.0000
2019-05-01T00:56:53.454Z,0.0000
2019-05-01T00:58:57.052Z,0.0000
2019-05-01T01:01:00.686Z,0.0000
2019-05-01T01:03:04.097Z,0.0000
2019-05-01T01:05:07.618Z,0.6158
2019-05-01T01:07:11.086Z,0.0293
2019-05-01T01:09:14.959Z,0.0293
2019-05-01T01:11:18.693Z,0.0000
2019-05-01T01:13:23.095Z,0.0585
2019-05-01T01:15:26.732Z,0.0000
2019-05-01T01:17:30.404Z,0.0293
2019-05-01T01:19:33.955Z,0.0000
2019-05-01T01:21:37.999Z,0.0000
2019-05-01T01:23:41.911Z,0.0000
2019-05-01T01:25:45.517Z,0.0000
2019-05-01T01:27:49.280Z,0.1466
2019-05-01T01:29:53.462Z,0.0000
2019-05-01T01:31:58.044Z,0.0000
2019-05-01T01:34:02.238Z,0.0000
2019-05-01T01:36:05.900Z,0.0292
2019-05-01T01:38:09.320Z,0.2635
2019-05-01T01:40:13.687Z,0.0000
2019-05-01T01:42:17.381Z,0.0000
2019-05-01T01:44:21.012Z,0.0585
2019-05-01T01:46:24.483Z,0.1171
2019-05-01T01:48:28.267Z,0.0000
2019-05-01T01:50:32.064Z,0.0000
2019-05-01T01:52:34.709Z,0.0000
2019-05-01T01:54:38.423Z,0.0000
2019-05-01T01:56:42.595Z,0.0000
2019-05-01T01:58:46.375Z,0.0000
2019-05-01T02:00:50.532Z,0.0000
2019-05-01T02:02:54.232Z,0.0000
2019-05-01T02:04:58.098Z,0.0000
2019-05-01T02:07:02.478Z,0.0000
2019-05-01T02:09:06.201Z,0.0000
2019-05-01T02:11:10.183Z,0.0000
2019-05-01T02:13:13.562Z,0.0000
2019-05-01T02:15:17.218Z,0.0000
2019-05-01T02:17:20.900Z,0.0000
2019-05-01T02:19:24.385Z,0.0000
2019-05-01T02:21:28.089Z,0.0000
2019-05-01T02:23:31.971Z,0.0000
2019-05-01T02:25:35.708Z,0.0000
2019-05-01T02:27:39.436Z,0.0000
2019-05-01T02:29:43.292Z,0.0000
2019-05-01T02:31:47.139Z,0.0292
2019-05-01T02:33:51.007Z,0.0000
2019-05-01T02:35:54.738Z,0.0000
2019-05-01T02:37:58.714Z,0.0000
2019-05-01T02:40:02.619Z,0.0000
2019-05-01T02:42:06.721Z,0.0000
2019-05-01T02:44:10.574Z,0.0000
2019-05-01T02:46:14.242Z,0.1463
2019-05-01T02:48:18.327Z,0.0000
2019-05-01T02:50:22.286Z,0.0000
2019-05-01T02:52:26.325Z,0.0292
2019-05-01T02:54:30.279Z,0.0000
2019-05-01T02:56:34.093Z,0.0000
2019-05-01T02:58:37.660Z,0.0000
2019-05-01T03:00:40.620Z,0.0000
2019-05-01T03:02:45.001Z,0.0000
2019-05-01T03:04:49.118Z,0.0000
2019-05-01T03:06:52.896Z,0.0000
2019-05-01T03:08:57.800Z,0.0000
2019-05-01T03:11:01.452Z,0.0000
2019-05-01T03:13:05.211Z,0.0000
2019-05-01T03:15:08.661Z,0.0000
2019-05-01T03:17:12.189Z,0.0293
2019-05-01T03:19:15.630Z,0.0879
2019-05-01T03:21:19.365Z,0.6453
2019-05-01T03:23:23.220Z,0.0000
2019-05-01T03:25:26.834Z,0.0000
2019-05-01T03:27:30.492Z,0.0000
2019-05-01T03:29:34.103Z,0.0293
2019-05-01T03:31:37.943Z,0.4975
2019-05-01T03:33:41.820Z,0.3212
2019-05-01T03:35:45.243Z,0.0000
2019-05-01T03:37:49.125Z,0.0000
2019-05-01T03:39:52.906Z,0.0000
2019-05-01T03:41:56.768Z,0.0000
2019-05-01T03:44:00.235Z,0.0000
2019-05-01T03:46:04.001Z,0.0000
2019-05-01T03:48:07.676Z,0.0877
2019-05-01T03:50:11.650Z,0.0292
2019-05-01T03:52:15.441Z,0.1169
2019-05-01T03:54:19.165Z,0.0293
2019-05-01T03:56:23.233Z,0.3216
2019-05-01T03:58:27.030Z,1.1392
2019-05-01T04:00:30.227Z,1.9580
2019-05-01T04:02:34.636Z,0.3528
2019-05-01T04:04:38.591Z,0.5811
2019-05-01T04:06:42.485Z,0.1463
2019-05-01T04:08:46.404Z,1.1105
2019-05-01T04:10:50.275Z,0.9348
2019-05-01T04:12:53.197Z,0.1169
2019-05-01T04:14:56.027Z,0.0000
2019-05-01T04:16:59.960Z,0.0000
2019-05-01T04:19:03.637Z,0.5258
2019-05-01T04:21:07.662Z,0.7611
2019-05-01T04:23:11.693Z,0.9925
2019-05-01T04:25:15.725Z,1.1384
2019-05-01T04:27:19.160Z,0.0876
2019-05-01T04:29:22.848Z,0.7627
2019-05-01T04:31:26.534Z,0.0000
2019-05-01T04:33:30.433Z,0.9368
2019-05-01T04:35:34.196Z,1.7532
2019-05-01T04:37:38.385Z,0.5266
2019-05-01T04:39:42.280Z,0.2041
2019-05-01T04:41:46.103Z,1.4003
2019-05-01T04:43:49.814Z,0.4978
2019-05-01T04:45:53.284Z,1.4047
2019-05-01T04:47:57.387Z,0.8211
2019-05-01T04:50:01.121Z,1.3709
2019-05-01T04:52:04.528Z,0.5559
2019-05-01T04:54:08.204Z,0.1174
2019-05-01T04:56:12.124Z,0.9368
2019-05-01T04:58:15.910Z,1.0518
2019-05-01T05:00:20.182Z,0.3510
2019-05-01T05:02:23.868Z,0.6698
2019-05-01T05:04:28.207Z,1.6105
2019-05-01T05:06:32.071Z,0.4076
2019-05-01T05:08:35.827Z,1.0815
2019-05-01T05:10:39.691Z,0.4973
2019-05-01T05:12:43.553Z,1.0230
2019-05-01T05:14:48.340Z,0.9344
2019-05-01T05:16:52.300Z,0.7841
2019-05-01T05:18:56.160Z,0.7301
2019-05-01T05:21:00.304Z,1.2571
2019-05-01T05:23:04.069Z,2.0412
2019-05-01T05:25:08.153Z,0.3218
2019-05-01T05:27:11.392Z,0.7872
2019-05-01T05:29:15.182Z,0.2352
2019-05-01T05:31:19.036Z,0.7605
2019-05-01T05:33:22.865Z,1.7246
2019-05-01T05:35:26.051Z,0.8771
2019-05-01T05:37:30.098Z,1.2343
2019-05-01T05:39:33.892Z,0.2918
2019-05-01T05:41:37.935Z,0.4679
2019-05-01T05:43:41.741Z,1.4004
2019-05-01T05:45:45.568Z,1.6381
2019-05-01T05:47:49.559Z,0.2631
2019-05-01T05:49:53.361Z,2.0147
2019-05-01T05:51:57.318Z,0.4971
2019-05-01T05:54:01.193Z,0.6133
2019-05-01T05:56:05.104Z,0.9052
2019-05-01T05:58:09.283Z,0.0000
2019-05-01T06:00:12.251Z,1.3118
2019-05-01T06:02:16.504Z,0.2944
2019-05-01T06:04:20.807Z,1.9233
2019-05-01T06:06:25.312Z,0.3786
2019-05-01T06:08:29.508Z,0.7561
2019-05-01T06:10:33.796Z,1.6906
2019-05-01T06:12:37.275Z,0.4952
2019-05-01T06:14:41.234Z,0.9080
2019-05-01T06:16:46.889Z,1.4033
2019-05-01T06:18:53.787Z,1.2079
2019-05-01T06:21:02.272Z,0.5268
2019-05-01T06:23:07.155Z,1.0694
2019-05-01T06:25:21.243Z,1.5389
2019-05-01T06:27:20.630Z,0.7002
2019-05-01T06:29:24.990Z,2.0693
2019-05-01T06:31:29.412Z,0.0582
2019-05-01T06:33:43.833Z,1.9786
2019-05-01T06:35:42.857Z,0.3357
2019-05-01T06:37:47.283Z,0.1751
2019-05-01T06:39:51.678Z,1.7750
2019-05-01T06:41:55.869Z,1.4260
2019-05-01T06:44:02.189Z,0.7871
2019-05-01T06:46:08.042Z,0.0000
2019-05-01T06:48:14.199Z,0.8464
2019-05-01T06:50:21.800Z,0.9517
2019-05-01T06:52:29.396Z,1.6586
2019-05-01T06:54:35.169Z,0.8702
2019-05-01T06:56:39.518Z,0.2037
2019-05-01T06:58:43.916Z,0.0873
2019-05-01T07:00:48.498Z,0.9021
2019-05-01T07:02:52.761Z,0.7265
2019-05-01T07:04:57.175Z,2.4766
2019-05-01T07:07:02.010Z,1.1349
2019-05-01T07:09:06.966Z,1.9131
2019-05-01T07:11:16.628Z,1.0648
2019-05-01T07:13:21.059Z,1.5873
2019-05-01T07:15:26.847Z,1.6597
2019-05-01T07:17:33.341Z,1.2164
2019-05-01T07:19:40.350Z,2.2716
2019-05-01T07:21:44.831Z,0.0569
2019-05-01T07:23:52.203Z,0.5241
2019-05-01T07:25:57.555Z,0.5067
2019-05-01T07:28:01.900Z,0.4667
2019-05-01T07:30:06.271Z,0.0000
2019-05-01T07:32:16.408Z,0.0000
2019-05-01T07:34:21.767Z,0.7790
2019-05-01T07:36:30.057Z,1.4844
2019-05-01T07:38:38.192Z,1.9212
2019-05-01T07:40:43.350Z,0.1124
2019-05-01T07:42:48.193Z,1.3096
2019-05-01T07:44:52.739Z,1.4758
2019-05-01T07:46:57.021Z,1.6604
2019-05-01T07:49:01.284Z,0.2913
2019-05-01T07:51:07.115Z,0.6409
2019-05-01T07:53:13.282Z,0.1417
2019-05-01T07:55:18.257Z,2.4775
2019-05-01T07:57:23.108Z,1.4732
2019-05-01T07:59:28.762Z,0.4936
2019-05-01T08:01:33.145Z,0.2307
2019-05-01T08:03:38.001Z,0.1165
2019-05-01T08:05:46.832Z,1.8234
2019-05-01T08:07:51.269Z,0.3193
2019-05-01T08:09:54.713Z,0.6698
2019-05-01T08:11:59.024Z,2.0515
2019-05-01T08:14:07.518Z,1.3696
2019-05-01T08:16:10.892Z,1.4940
2019-05-01T08:18:15.557Z,1.6720
2019-05-01T08:20:20.256Z,2.4104
2019-05-01T08:22:24.391Z,0.1742
2019-05-01T08:24:28.685Z,2.2165
2019-05-01T08:26:33.568Z,1.8351
2019-05-01T08:28:37.838Z,1.7684
2019-05-01T08:30:42.204Z,0.7574
2019-05-01T08:32:45.702Z,1.5138
2019-05-01T08:34:49.961Z,2.4624
2019-05-01T08:36:54.262Z,1.6898
2019-05-01T08:38:58.636Z,0.4952
2019-05-01T08:41:02.698Z,1.8339
2019-05-01T08:43:07.181Z,1.0213
2019-05-01T08:45:11.576Z,2.1813
2019-05-01T08:47:15.956Z,1.1642
2019-05-01T08:49:20.265Z,1.8920
2019-05-01T08:51:24.605Z,1.2231
2019-05-01T08:53:28.224Z,2.2712
2019-05-01T08:55:32.635Z,2.3113
2019-05-01T08:57:39.195Z,1.9225
2019-05-01T08:59:44.888Z,1.3871
2019-05-01T09:01:50.569Z,2.6198
2019-05-01T09:03:58.528Z,0.3082
2019-05-01T09:06:02.042Z,0.6692
2019-05-01T09:08:05.376Z,0.7619
2019-05-01T09:10:09.361Z,1.3798
2019-05-01T09:12:13.609Z,1.6053
2019-05-01T09:14:18.166Z,1.1947
2019-05-01T09:16:23.350Z,2.8499
2019-05-01T09:18:32.076Z,1.8226
2019-05-01T09:20:36.410Z,0.8700
2019-05-01T09:22:40.870Z,0.1165
2019-05-01T09:24:45.528Z,0.2036
2019-05-01T09:26:51.437Z,2.1781
2019-05-01T09:28:55.616Z,1.6378
2019-05-01T09:31:02.097Z,2.5092
2019-05-01T09:33:08.047Z,1.9491
2019-05-01T09:35:16.046Z,0.3205
2019-05-01T09:37:20.702Z,1.7195
2019-05-01T09:39:25.061Z,3.7016
2019-05-01T09:41:37.942Z,0.0582
2019-05-01T09:43:38.608Z,2.8021
2019-05-01T09:45:42.661Z,1.6595
2019-05-01T09:47:46.346Z,0.8755
2019-05-01T09:49:54.078Z,2.7208
2019-05-01T09:51:58.261Z,1.7544
2019-05-01T09:54:05.573Z,2.7174
2019-05-01T09:56:11.342Z,2.1895
2019-05-01T09:58:15.073Z,3.6755
2019-05-01T10:00:19.529Z,1.1990
2019-05-01T10:02:23.644Z,1.5718
2019-05-01T10:04:30.195Z,1.1376
2019-05-01T10:06:36.833Z,0.2816
2019-05-01T10:08:41.902Z,2.4114
2019-05-01T10:10:46.452Z,2.0249
2019-05-01T10:12:51.126Z,2.3559
2019-05-01T10:14:55.520Z,1.6842
2019-05-01T10:16:59.229Z,2.2703
2019-05-01T10:19:03.315Z,1.1706
2019-05-01T10:21:07.864Z,0.1167
2019-05-01T10:23:13.170Z,1.8895
2019-05-01T10:25:19.138Z,3.5049
2019-05-01T10:27:23.616Z,1.7468
2019-05-01T10:29:27.959Z,2.6203
2019-05-01T10:31:32.427Z,2.9991
2019-05-01T10:33:36.567Z,1.9196
2019-05-01T10:35:42.727Z,3.6455
2019-05-01T10:37:47.297Z,4.4294
2019-05-01T10:39:54.015Z,1.7805
2019-05-01T10:42:00.024Z,2.1176
2019-05-01T10:44:04.986Z,0.7269
2019-05-01T10:46:09.301Z,4.4907
2019-05-01T10:48:13.748Z,1.8930
2019-05-01T10:50:18.405Z,2.3564
2019-05-01T10:52:22.717Z,0.4646
2019-05-01T10:54:27.264Z,0.7280
2019-05-01T10:56:31.335Z,0.2326
2019-05-01T10:58:35.622Z,2.1589
2019-05-01T11:00:39.955Z,1.3402
2019-05-01T11:02:44.355Z,2.8243
2019-05-01T11:04:49.133Z,2.0954
2019-05-01T11:06:53.429Z,1.3347
2019-05-01T11:08:57.724Z,2.7671
2019-05-01T11:11:02.147Z,1.7185
2019-05-01T11:13:07.811Z,2.8806
2019-05-01T11:15:11.741Z,2.0139
2019-05-01T11:17:14.765Z,3.4226
2019-05-01T11:19:18.348Z,2.0306
2019-05-01T11:21:22.792Z,1.1424
2019-05-01T11:23:26.889Z,1.3384
2019-05-01T11:25:31.219Z,0.6416
2019-05-01T11:27:35.000Z,2.8839
2019-05-01T11:29:38.912Z,1.8134
2019-05-01T11:31:43.372Z,1.1979
2019-05-01T11:33:47.405Z,0.5236
2019-05-01T11:35:51.509Z,0.2627
2019-05-01T11:37:55.117Z,2.5966
2019-05-01T11:39:58.545Z,1.7867
2019-05-01T11:42:02.203Z,1.3786
2019-05-01T11:44:05.671Z,1.7857
2019-05-01T11:46:09.941Z,3.6658
2019-05-01T11:48:13.873Z,2.1267
2019-05-01T11:50:17.608Z,2.2494
2019-05-01T11:52:21.736Z,2.2235
2019-05-01T11:54:25.354Z,1.4292
2019-05-01T11:56:29.385Z,1.4938
2019-05-01T11:58:33.326Z,0.8757
2019-05-01T12:00:37.177Z,1.6065
2019-05-01T12:02:41.177Z,1.3738
2019-05-01T12:04:44.620Z,1.3139
2019-05-01T12:06:48.173Z,2.1998
2019-05-01T12:08:51.870Z,4.3069
2019-05-01T12:10:55.700Z,1.8441
2019-05-01T12:12:59.669Z,3.1575
2019-05-01T12:15:03.108Z,3.7089
2019-05-01T12:17:06.844Z,3.1967
2019-05-01T12:19:10.366Z,0.8190
2019-05-01T12:21:14.169Z,1.3487
2019-05-01T12:23:17.994Z,3.4507
2019-05-01T12:25:21.738Z,3.9179
2019-05-01T12:27:25.635Z,5.0300
2019-05-01T12:29:29.215Z,3.9174
2019-05-01T12:31:33.367Z,2.8708
2019-05-01T12:33:36.575Z,3.1483
2019-05-01T12:35:40.359Z,4.8799
2019-05-01T12:37:44.038Z,1.1699
2019-05-01T12:39:48.439Z,3.7466
2019-05-01T12:41:52.627Z,1.3971
2019-05-01T12:43:56.623Z,3.3813
2019-05-01T12:46:00.295Z,5.0807
2019-05-01T12:48:03.730Z,2.8103
2019-05-01T12:50:07.452Z,4.6340
2019-05-01T12:52:11.129Z,2.9261
2019-05-01T12:54:15.102Z,0.7026
2019-05-01T12:56:18.805Z,1.7814
2019-05-01T12:58:23.027Z,2.0781
2019-05-01T13:00:27.266Z,5.2455
2019-05-01T13:02:30.973Z,3.1474
2019-05-01T13:04:35.164Z,0.8487
2019-05-01T13:06:48.919Z,2.3902
2019-05-01T13:08:47.734Z,3.4016
2019-05-01T13:10:51.461Z,2.1634
2019-05-01T13:12:55.081Z,1.7855
2019-05-01T13:14:58.888Z,1.1716
2019-05-01T13:17:02.724Z,1.9006
2019-05-01T13:19:06.725Z,2.3097
2019-05-01T13:21:10.521Z,2.5400
2019-05-01T13:23:13.925Z,3.8020
2019-05-01T13:25:17.713Z,2.9335
2019-05-01T13:27:21.568Z,4.5335
2019-05-01T13:29:25.251Z,1.0230
2019-05-01T13:31:29.089Z,3.6003
2019-05-01T13:33:32.874Z,2.3095
2019-05-01T13:35:37.086Z,2.2229
2019-05-01T13:37:40.963Z,3.9055
2019-05-01T13:39:44.602Z,4.0331
2019-05-01T13:41:48.617Z,2.5475
2019-05-01T13:43:52.380Z,0.4379
2019-05-01T13:45:56.348Z,3.3041
2019-05-01T13:47:59.993Z,2.0734
2019-05-01T13:50:03.951Z,1.9336
2019-05-01T13:52:07.673Z,1.5479
2019-05-01T13:54:11.376Z,4.2432
2019-05-01T13:56:15.022Z,0.4097
2019-05-01T13:58:18.726Z,1.6984
2019-05-01T14:00:22.703Z,4.1264
2019-05-01T14:02:26.435Z,3.3280
2019-05-01T14:04:30.295Z,1.7555
2019-05-01T14:06:34.223Z,1.9299
2019-05-01T14:08:38.012Z,1.9282
2019-05-01T14:10:41.907Z,1.0821
2019-05-01T14:12:45.673Z,1.6364
2019-05-01T14:14:49.528Z,0.6143
2019-05-01T14:16:53.474Z,2.5431
2019-05-01T14:18:57.421Z,2.1323
2019-05-01T14:21:01.210Z,3.2130
2019-05-01T14:23:04.886Z,2.9245
2019-05-01T14:25:08.358Z,1.3173
2019-05-01T14:27:12.340Z,1.7595
2019-05-01T14:29:16.064Z,1.7813
2019-05-01T14:31:19.488Z,0.7607
2019-05-01T14:33:23.045Z,2.0241
2019-05-01T14:35:26.945Z,3.3977
2019-05-01T14:37:30.690Z,2.6589
2019-05-01T14:39:34.371Z,3.0148
2019-05-01T14:41:38.305Z,0.5854
2019-05-01T14:43:42.325Z,1.9862
2019-05-01T14:45:45.731Z,3.2699
2019-05-01T14:47:50.195Z,1.7301
2019-05-01T14:49:54.127Z,0.1163
2019-05-01T14:51:57.843Z,2.9532
2019-05-01T14:54:01.568Z,1.7555
2019-05-01T14:56:05.313Z,1.5804
2019-05-01T14:58:09.365Z,1.4336
2019-05-01T15:00:13.267Z,0.8171
2019-05-01T15:02:17.169Z,2.4836
2019-05-01T15:04:20.619Z,0.6135
2019-05-01T15:06:24.369Z,0.7040
2019-05-01T15:08:28.242Z,1.6664
2019-05-01T15:10:32.129Z,1.7842
2019-05-01T15:12:36.239Z,2.0455
2019-05-01T15:14:39.913Z,3.8212
2019-05-01T15:16:43.659Z,1.1417
2019-05-01T15:18:47.538Z,2.7208
2019-05-01T15:20:50.984Z,1.0228
2019-05-01T15:22:54.597Z,4.1939
2019-05-01T15:24:58.409Z,2.5483
2019-05-01T15:27:22.726Z,1.7250
2019-05-01T15:29:27.198Z,1.8815
2019-05-01T15:31:31.557Z,3.4321
2019-05-01T15:33:35.858Z,3.6972
2019-05-01T15:35:40.266Z,0.8445
2019-05-01T15:37:56.033Z,2.4741
2019-05-01T15:39:53.753Z,1.0355
2019-05-01T15:41:58.142Z,2.2459
2019-05-01T15:44:02.294Z,1.5134
2019-05-01T15:46:06.568Z,2.8871
2019-05-01T15:48:10.864Z,1.6022
2019-05-01T15:50:15.282Z,0.7864
2019-05-01T15:52:19.644Z,2.1514
2019-05-01T15:54:23.840Z,1.5152
2019-05-01T15:56:27.999Z,2.1278
2019-05-01T15:58:32.292Z,0.0583
2019-05-01T16:00:36.363Z,0.1748
2019-05-01T16:02:40.765Z,1.2544
2019-05-01T16:04:45.056Z,1.1061
2019-05-01T16:06:49.661Z,2.0683
2019-05-01T16:08:54.039Z,0.6973
2019-05-01T16:10:58.406Z,2.0085
2019-05-01T16:13:02.792Z,3.6971
2019-05-01T16:15:07.128Z,0.7567
2019-05-01T16:17:11.198Z,1.1066
2019-05-01T16:19:15.462Z,1.1380
2019-05-01T16:21:20.011Z,1.7190
2019-05-01T16:23:24.332Z,0.1744
2019-05-01T16:25:28.588Z,0.2330
2019-05-01T16:27:33.298Z,2.0104
2019-05-01T16:29:37.694Z,2.7287
2019-05-01T16:31:42.230Z,1.1933
2019-05-01T16:33:46.358Z,0.3779
2019-05-01T16:35:50.721Z,0.5250
2019-05-01T16:37:55.075Z,1.1935
2019-05-01T16:39:59.447Z,0.9608
2019-05-01T16:42:03.824Z,2.3579
2019-05-01T16:44:08.312Z,1.6883
2019-05-01T16:46:12.609Z,1.1051
2019-05-01T16:48:16.954Z,1.3107
2019-05-01T16:50:21.052Z,2.0672
2019-05-01T16:52:25.420Z,0.0000
2019-05-01T16:54:29.746Z,2.4161
2019-05-01T16:56:34.117Z,0.3495
2019-05-01T16:58:38.381Z,0.0000
2019-05-01T17:00:42.684Z,1.4567
2019-05-01T17:02:47.079Z,1.7183
2019-05-01T17:04:51.681Z,0.2329
2019-05-01T17:06:56.052Z,1.8886
2019-05-01T17:09:00.483Z,0.0291
2019-05-01T17:11:04.586Z,0.9311
2019-05-01T17:13:08.904Z,0.5251
2019-05-01T17:15:13.247Z,0.0582
2019-05-01T17:17:17.771Z,0.9026
2019-05-01T17:19:22.110Z,1.4536
2019-05-01T17:21:26.456Z,0.2038
2019-05-01T17:23:30.520Z,0.2329
2019-05-01T17:25:34.935Z,0.0584
2019-05-01T17:27:39.059Z,0.1746
2019-05-01T17:29:43.393Z,0.4084
2019-05-01T17:31:47.711Z,0.0874
2019-05-01T17:33:55.569Z,0.4368
2019-05-01T17:36:01.532Z,0.4204
2019-05-01T17:38:05.946Z,0.1743
2019-05-01T17:40:10.182Z,0.0000
2019-05-01T17:42:14.571Z,0.1166
2019-05-01T17:44:20.161Z,0.0582
2019-05-01T17:46:27.533Z,0.0000
2019-05-01T17:48:33.614Z,0.0000
2019-05-01T17:50:39.149Z,0.0284
2019-05-01T17:52:43.603Z,0.0000
2019-05-01T17:54:48.055Z,0.0000
2019-05-01T17:56:53.742Z,0.1455
2019-05-01T17:59:00.311Z,0.1414
2019-05-01T18:01:04.389Z,0.0583
2019-05-01T18:03:08.931Z,0.3501
2019-05-01T18:05:12.930Z,0.1744
2019-05-01T18:07:17.231Z,0.0000
2019-05-01T18:09:21.459Z,0.0583
2019-05-01T18:11:25.970Z,0.0583
2019-05-01T18:13:30.460Z,0.0000
2019-05-01T18:15:34.787Z,0.0000
2019-05-01T18:17:39.076Z,0.0000
2019-05-01T18:19:43.306Z,0.0000
2019-05-01T18:21:51.948Z,0.0000
2019-05-01T18:23:56.399Z,0.0000
2019-05-01T18:26:04.748Z,0.0000
2019-05-01T18:28:10.367Z,0.0000
2019-05-01T18:30:15.803Z,0.2328
2019-05-01T18:32:23.873Z,0.2520
2019-05-01T18:34:28.237Z,0.3205
2019-05-01T18:36:32.585Z,0.4950
2019-05-01T18:38:37.008Z,0.4367
2019-05-01T18:40:41.312Z,0.3201
2019-05-01T18:42:45.351Z,0.4660
2019-05-01T18:44:49.635Z,0.3794
2019-05-01T18:46:54.027Z,0.2330
2019-05-01T18:48:58.326Z,0.2911
2019-05-01T18:51:02.533Z,0.2913
2019-05-01T18:53:11.010Z,0.2915
2019-05-01T18:55:15.787Z,0.3371
2019-05-01T18:57:20.015Z,0.3493
2019-05-01T18:59:24.112Z,0.2623
2019-05-01T19:01:28.415Z,0.2334
2019-05-01T19:03:37.069Z,0.2621
2019-05-01T19:05:43.115Z,0.0560
2019-05-01T19:07:51.329Z,0.0000
2019-05-01T19:09:55.678Z,0.0000
2019-05-01T19:12:00.001Z,0.0873
2019-05-01T19:14:04.426Z,0.4077
2019-05-01T19:16:09.941Z,0.1746
2019-05-01T19:18:14.109Z,0.0288
2019-05-01T19:20:17.245Z,0.2625
2019-05-01T19:22:21.444Z,0.1176
2019-05-01T19:24:25.768Z,0.2624
2019-05-01T19:26:30.039Z,0.2038
2019-05-01T19:28:34.177Z,0.1747
2019-05-01T19:30:37.683Z,0.0584
2019-05-01T19:32:41.127Z,0.0000
2019-05-01T19:34:44.646Z,0.1760
2019-05-01T19:36:48.122Z,0.2931
2019-05-01T19:38:51.580Z,0.2932
2019-05-01T19:40:56.052Z,0.2053
2019-05-01T19:43:00.427Z,0.2036
2019-05-01T19:45:03.837Z,0.2037
2019-05-01T19:47:07.968Z,0.1174
2019-05-01T19:49:12.237Z,0.1456
2019-05-01T19:51:19.154Z,0.1750
2019-05-01T19:53:24.539Z,0.1688
2019-05-01T19:55:28.899Z,0.2051
2019-05-01T19:57:33.337Z,0.3202
2019-05-01T19:59:37.476Z,0.1164
2019-05-01T20:01:44.067Z,0.0875
2019-05-01T20:03:49.552Z,0.0845
2019-05-01T20:05:53.831Z,0.1466
2019-05-01T20:07:57.923Z,0.0000
2019-05-01T20:10:02.050Z,0.0000
2019-05-01T20:12:05.650Z,0.0000
2019-05-01T20:14:10.329Z,0.0000
2019-05-01T20:16:14.638Z,0.0000
2019-05-01T20:18:19.007Z,0.1165
2019-05-01T20:20:23.265Z,0.0000
2019-05-01T20:22:26.992Z,0.0000
2019-05-01T20:24:31.459Z,0.0000
2019-05-01T20:26:35.699Z,0.0000
2019-05-01T20:28:40.030Z,0.0000
2019-05-01T20:30:44.521Z,0.0000
2019-05-01T20:32:48.710Z,0.0000
2019-05-01T20:34:53.906Z,0.0000
2019-05-01T20:36:58.380Z,0.0000
2019-05-01T20:39:02.720Z,0.0000
2019-05-01T20:41:10.373Z,0.0000
2019-05-01T20:43:16.570Z,0.0000
2019-05-01T20:45:20.163Z,0.0000
2019-05-01T20:47:34.869Z,0.0000
2019-05-01T20:49:36.410Z,0.0000
2019-05-01T20:51:43.005Z,0.0000
2019-05-01T20:53:47.062Z,0.0000
2019-05-01T20:55:51.322Z,0.0000
2019-05-01T20:57:55.698Z,0.0000
2019-05-01T21:00:00.135Z,0.0000
2019-05-01T21:02:08.096Z,0.0000
2019-05-01T21:04:14.094Z,0.0000
2019-05-01T21:06:18.222Z,0.0000
2019-05-01T21:08:22.529Z,0.0000
2019-05-01T21:10:29.952Z,0.0000
2019-05-01T21:12:35.269Z,0.0000
2019-05-01T21:14:38.703Z,0.0000
2019-05-01T21:16:42.553Z,0.0000
2019-05-01T21:18:47.109Z,0.0000
2019-05-01T21:20:51.566Z,0.0000
2019-05-01T21:22:55.874Z,0.0000
2019-05-01T21:25:00.250Z,0.0000
2019-05-01T21:27:04.244Z,0.0000
2019-05-01T21:29:08.985Z,0.0000
2019-05-01T21:31:13.797Z,0.0000
2019-05-01T21:33:18.271Z,0.0000
2019-05-01T21:35:23.948Z,0.0000
2019-05-01T21:37:28.493Z,0.0000
2019-05-01T21:39:33.446Z,0.0000
2019-05-01T21:41:37.570Z,0.0000
2019-05-01T21:43:42.495Z,0.0000
2019-05-01T21:45:46.907Z,0.0000
2019-05-01T21:47:52.840Z,0.0000
2019-05-01T21:49:57.508Z,0.0000
2019-05-01T21:52:03.628Z,0.0000
2019-05-01T21:54:09.214Z,0.0000
2019-05-01T21:56:13.518Z,0.0000
2019-05-01T21:58:21.025Z,0.0000
2019-05-01T22:00:27.323Z,0.0000
2019-05-01T22:02:31.397Z,0.0000
2019-05-01T22:04:35.685Z,0.0000
2019-05-01T22:06:40.013Z,0.0583
2019-05-01T22:08:44.337Z,0.0000
2019-05-01T22:10:52.005Z,0.0000
2019-05-01T22:12:56.888Z,0.0000
2019-05-01T22:15:01.175Z,0.0000
2019-05-01T22:17:05.608Z,0.0000
2019-05-01T22:19:09.576Z,0.0000
2019-05-01T22:21:13.845Z,0.0000
2019-05-01T22:23:21.930Z,0.0000
2019-05-01T22:25:26.975Z,0.0000
2019-05-01T22:27:31.402Z,0.0000
2019-05-01T22:29:35.727Z,0.0000
2019-05-01T22:31:39.567Z,0.0000
2019-05-01T22:33:43.890Z,0.0000
2019-05-01T22:35:48.288Z,0.0000
2019-05-01T22:37:52.385Z,0.0000
2019-05-01T22:39:56.722Z,0.0000
2019-05-01T22:42:01.035Z,0.0000
2019-05-01T22:44:05.319Z,0.0000
2019-05-01T22:46:09.671Z,0.0000
2019-05-01T22:48:13.975Z,0.0000
2019-05-01T22:50:18.443Z,0.0000
2019-05-01T22:52:22.589Z,0.0000
2019-05-01T22:54:26.951Z,0.0000
2019-05-01T22:56:32.128Z,0.0000
2019-05-01T22:58:36.494Z,0.0000
2019-05-01T23:00:40.757Z,0.0000
2019-05-01T23:02:45.075Z,0.0000
2019-05-01T23:04:52.089Z,0.0000
2019-05-01T23:06:56.595Z,0.0000
2019-05-01T23:09:00.038Z,0.0000
2019-05-01T23:11:03.164Z,0.0000
2019-05-01T23:13:07.251Z,0.0000
2019-05-01T23:15:11.785Z,0.0000
2019-05-01T23:17:16.084Z,0.0000
2019-05-01T23:19:22.760Z,0.0000
2019-05-01T23:21:29.762Z,0.0000
2019-05-01T23:23:34.044Z,0.0000
2019-05-01T23:25:41.236Z,0.0000
2019-05-01T23:27:46.730Z,0.0000
2019-05-01T23:29:50.990Z,0.0000
2019-05-01T23:31:55.207Z,0.0000
2019-05-01T23:33:59.569Z,0.0000
2019-05-01T23:36:03.856Z,0.0000
2019-05-01T23:38:08.255Z,0.0000
2019-05-01T23:40:15.586Z,0.0000
2019-05-01T23:42:21.227Z,0.0000
2019-05-01T23:44:25.476Z,0.0000
2019-05-01T23:46:29.137Z,0.0000
2019-05-01T23:48:33.502Z,0.0000
2019-05-01T23:50:37.555Z,0.0000
2019-05-01T23:52:40.715Z,0.0000
2019-05-01T23:54:44.173Z,0.0000
2019-05-01T23:56:48.634Z,0.0000
2019-05-01T23:58:51.755Z,0.0000
